createdAt,value
2018-12-08T00:00:45.794Z,1.45
2018-12-08T00:03:14.057Z,1.40
2018-12-08T00:05:42.496Z,1.13
2018-12-08T00:08:10.798Z,1.20
2018-12-08T00:10:38.982Z,1.20
2018-12-08T00:13:07.370Z,1.67
2018-12-08T00:15:35.788Z,1.30
2018-12-08T00:18:04.207Z,1.55
2018-12-08T00:20:32.461Z,1.30
2018-12-08T00:23:00.690Z,1.40
2018-12-08T00:25:29.002Z,1.37
2018-12-08T00:27:57.356Z,1.40
2018-12-08T00:30:36.921Z,1.30
2018-12-08T00:33:05.207Z,1.37
2018-12-08T00:35:33.427Z,1.75
2018-12-08T00:38:01.676Z,1.60
2018-12-08T00:40:29.891Z,1.40
2018-12-08T00:42:58.099Z,1.50
2018-12-08T00:45:26.405Z,1.82
2018-12-08T00:47:54.702Z,1.57
2018-12-08T00:50:22.913Z,1.60
2018-12-08T00:52:51.229Z,1.77
2018-12-08T00:55:19.792Z,1.57
2018-12-08T00:57:48.095Z,1.40
2018-12-08T01:00:16.549Z,1.62
2018-12-08T01:02:44.810Z,1.60
2018-12-08T01:05:13.218Z,1.63
2018-12-08T01:07:41.472Z,1.70
2018-12-08T01:10:09.853Z,1.72
2018-12-08T01:12:38.114Z,2.00
2018-12-08T01:15:06.517Z,1.80
2018-12-08T01:17:34.750Z,2.30
2018-12-08T01:20:03.152Z,1.95
2018-12-08T01:22:31.389Z,2.10
2018-12-08T01:24:59.754Z,2.20
2018-12-08T01:27:28.054Z,2.05
2018-12-08T01:29:56.295Z,2.20
2018-12-08T01:32:24.613Z,1.77
2018-12-08T01:34:52.905Z,2.22
2018-12-08T01:37:21.269Z,1.80
2018-12-08T01:39:49.500Z,2.20
2018-12-08T01:42:17.840Z,2.05
2018-12-08T01:44:46.218Z,2.50
2018-12-08T01:47:14.465Z,2.27
2018-12-08T01:49:42.820Z,2.45
2018-12-08T01:52:11.176Z,2.27
2018-12-08T01:54:39.457Z,2.43
2018-12-08T01:57:07.821Z,2.17
2018-12-08T01:59:36.078Z,2.33
2018-12-08T02:02:04.369Z,2.20
2018-12-08T02:04:32.579Z,2.08
2018-12-08T02:07:00.830Z,2.90
2018-12-08T02:09:29.142Z,2.37
2018-12-08T02:11:57.444Z,2.50
2018-12-08T02:14:25.720Z,2.20
2018-12-08T02:16:54.025Z,2.60
2018-12-08T02:19:22.444Z,2.20
2018-12-08T02:21:50.624Z,2.75
2018-12-08T02:24:19.998Z,2.52
2018-12-08T02:26:48.250Z,2.42
2018-12-08T02:29:16.574Z,2.45
2018-12-08T02:31:45.770Z,2.40
2018-12-08T02:34:14.149Z,2.17
2018-12-08T02:36:42.544Z,2.90
2018-12-08T02:39:11.176Z,2.62
2018-12-08T02:41:39.357Z,2.52
2018-12-08T02:44:07.633Z,2.30
2018-12-08T02:46:35.859Z,2.62
2018-12-08T02:49:04.276Z,2.70
2018-12-08T02:51:32.506Z,2.27
2018-12-08T02:54:00.827Z,2.40
2018-12-08T02:56:30.100Z,2.20
2018-12-08T02:58:58.341Z,2.70
2018-12-08T03:01:26.719Z,2.40
2018-12-08T03:03:54.995Z,2.60
2018-12-08T03:06:23.274Z,2.70
2018-12-08T03:08:51.496Z,2.02
2018-12-08T03:11:19.974Z,2.50
2018-12-08T03:13:48.150Z,2.42
2018-12-08T03:16:16.432Z,2.67
2018-12-08T03:18:44.651Z,2.77
2018-12-08T03:21:13.130Z,2.30
2018-12-08T03:23:41.372Z,2.65
2018-12-08T03:26:09.606Z,2.42
2018-12-08T03:28:37.841Z,2.40
2018-12-08T03:31:06.092Z,2.70
2018-12-08T03:33:34.303Z,2.80
2018-12-08T03:36:02.591Z,2.45
2018-12-08T03:38:30.889Z,2.37
2018-12-08T03:40:59.165Z,3.08
2018-12-08T03:43:27.474Z,2.80
2018-12-08T03:45:55.740Z,2.90
2018-12-08T03:48:24.003Z,2.95
2018-12-08T03:50:52.268Z,2.50
2018-12-08T03:53:20.533Z,2.77
2018-12-08T03:55:48.712Z,2.55
2018-12-08T03:58:17.043Z,2.62
2018-12-08T04:00:45.324Z,2.40
2018-12-08T04:03:13.582Z,2.47
2018-12-08T04:05:41.910Z,2.77
2018-12-08T04:08:10.158Z,2.80
2018-12-08T04:10:38.457Z,2.72
2018-12-08T04:13:06.794Z,2.55
2018-12-08T04:15:35.305Z,2.93
2018-12-08T04:18:03.669Z,2.37
2018-12-08T04:20:32.004Z,2.47
2018-12-08T04:23:00.265Z,2.67
2018-12-08T04:25:28.547Z,3.00
2018-12-08T04:27:56.833Z,2.37
2018-12-08T04:30:29.204Z,2.62
2018-12-08T04:32:57.534Z,2.42
2018-12-08T04:35:25.865Z,2.87
2018-12-08T04:37:54.108Z,2.92
2018-12-08T04:40:22.456Z,2.55
2018-12-08T04:42:50.623Z,2.70
2018-12-08T04:45:18.984Z,2.98
2018-12-08T04:47:47.245Z,2.70
2018-12-08T04:50:15.504Z,2.95
2018-12-08T04:52:43.736Z,2.90
2018-12-08T04:55:11.982Z,2.90
2018-12-08T04:57:40.193Z,2.73
2018-12-08T05:00:08.605Z,2.62
2018-12-08T05:02:38.331Z,2.62
2018-12-08T05:05:06.795Z,2.70
2018-12-08T05:07:35.065Z,2.90
2018-12-08T05:10:03.544Z,2.50
2018-12-08T05:12:31.756Z,2.37
2018-12-08T05:15:00.065Z,2.40
2018-12-08T05:17:28.259Z,2.40
2018-12-08T05:19:56.488Z,2.67
2018-12-08T05:22:24.688Z,2.80
2018-12-08T05:24:53.045Z,2.58
2018-12-08T05:27:21.236Z,2.70
2018-12-08T05:29:49.542Z,2.55
2018-12-08T05:32:17.796Z,2.77
2018-12-08T05:34:47.339Z,2.35
2018-12-08T05:37:15.581Z,2.70
2018-12-08T05:39:43.993Z,2.80
2018-12-08T05:42:12.298Z,2.70
2018-12-08T05:44:40.536Z,2.50
2018-12-08T05:47:08.810Z,2.50
2018-12-08T05:49:37.110Z,2.57
2018-12-08T05:52:05.462Z,3.00
2018-12-08T05:54:33.786Z,2.70
2018-12-08T05:57:02.027Z,2.50
2018-12-08T05:59:30.319Z,2.60
2018-12-08T06:01:58.530Z,2.43
2018-12-08T06:04:26.805Z,2.42
2018-12-08T06:06:55.080Z,2.80
2018-12-08T06:09:23.289Z,2.93
2018-12-08T06:11:51.612Z,2.85
2018-12-08T06:14:19.806Z,3.10
2018-12-08T06:16:48.000Z,2.23
2018-12-08T06:19:16.277Z,2.95
2018-12-08T06:21:44.520Z,2.72
2018-12-08T06:24:12.774Z,2.80
2018-12-08T06:26:50.064Z,2.40
2018-12-08T06:29:18.746Z,2.70
2018-12-08T06:31:47.058Z,2.77
2018-12-08T06:34:15.209Z,2.55
2018-12-08T06:36:45.685Z,3.00
2018-12-08T06:39:13.872Z,2.80
2018-12-08T06:41:42.120Z,2.90
2018-12-08T06:44:10.361Z,2.83
2018-12-08T06:46:38.606Z,2.85
2018-12-08T06:49:06.842Z,3.08
2018-12-08T06:51:35.096Z,3.45
2018-12-08T06:54:03.402Z,3.05
2018-12-08T06:56:31.685Z,2.63
2018-12-08T06:58:59.904Z,2.87
2018-12-08T07:01:28.249Z,2.80
2018-12-08T07:03:56.622Z,2.60
2018-12-08T07:06:25.034Z,2.80
2018-12-08T07:08:54.749Z,2.60
2018-12-08T07:11:23.090Z,2.60
2018-12-08T07:13:51.370Z,2.80
2018-12-08T07:16:19.679Z,2.90
2018-12-08T07:18:47.900Z,2.50
2018-12-08T07:21:16.182Z,2.40
2018-12-08T07:23:44.631Z,2.92
2018-12-08T07:26:12.953Z,2.72
2018-12-08T07:28:41.166Z,2.87
2018-12-08T07:31:09.413Z,2.80
2018-12-08T07:33:37.729Z,2.80
2018-12-08T07:36:06.411Z,2.47
2018-12-08T07:38:34.695Z,2.30
2018-12-08T07:41:04.330Z,2.90
2018-12-08T07:43:32.469Z,2.72
2018-12-08T07:46:00.740Z,2.52
2018-12-08T07:48:28.916Z,2.70
2018-12-08T07:50:57.192Z,2.90
2018-12-08T07:53:26.077Z,2.73
2018-12-08T07:55:54.397Z,2.30
2018-12-08T07:58:22.630Z,2.50
2018-12-08T08:00:50.983Z,2.70
2018-12-08T08:03:19.258Z,2.55
2018-12-08T08:05:47.473Z,2.60
2018-12-08T08:08:15.673Z,2.77
2018-12-08T08:10:43.820Z,2.98
2018-12-08T08:13:14.161Z,2.60
2018-12-08T08:15:42.532Z,2.60
2018-12-08T08:18:10.726Z,2.65
2018-12-08T08:20:38.977Z,2.87
2018-12-08T08:23:07.288Z,2.70
2018-12-08T08:25:35.616Z,2.70
2018-12-08T08:28:03.922Z,2.77
2018-12-08T08:30:32.179Z,2.62
2018-12-08T08:33:00.899Z,2.80
2018-12-08T08:35:29.176Z,2.62
2018-12-08T08:37:57.428Z,2.92
2018-12-08T08:40:25.640Z,2.70
2018-12-08T08:42:53.900Z,2.67
2018-12-08T08:45:22.293Z,2.90
2018-12-08T08:47:50.802Z,2.73
2018-12-08T08:50:18.995Z,2.42
2018-12-08T08:52:47.329Z,2.60
2018-12-08T08:55:15.579Z,2.80
2018-12-08T08:57:43.884Z,2.70
2018-12-08T09:00:12.250Z,2.70
2018-12-08T09:02:40.515Z,2.40
2018-12-08T09:05:09.253Z,2.65
2018-12-08T09:07:37.483Z,2.83
2018-12-08T09:10:10.366Z,2.40
2018-12-08T09:12:39.457Z,2.42
2018-12-08T09:15:08.877Z,2.30
2018-12-08T09:17:37.316Z,2.50
2018-12-08T09:20:08.345Z,2.40
2018-12-08T09:22:36.604Z,2.20
2018-12-08T09:25:05.643Z,2.50
2018-12-08T09:27:34.025Z,2.22
2018-12-08T09:30:02.252Z,2.20
2018-12-08T09:32:30.492Z,2.05
2018-12-08T09:34:58.871Z,2.37
2018-12-08T09:37:27.225Z,2.70
2018-12-08T09:39:57.175Z,2.50
2018-12-08T09:42:25.794Z,2.15
2018-12-08T09:44:54.999Z,2.25
2018-12-08T09:47:23.680Z,1.98
2018-12-08T09:49:51.896Z,2.42
2018-12-08T09:52:20.367Z,2.47
2018-12-08T09:54:48.608Z,2.05
2018-12-08T09:57:16.888Z,2.10
2018-12-08T09:59:45.147Z,2.42
2018-12-08T10:02:13.529Z,2.20
2018-12-08T10:04:41.862Z,2.40
2018-12-08T10:07:10.822Z,2.15
2018-12-08T10:09:39.115Z,2.22
2018-12-08T10:12:07.347Z,2.27
2018-12-08T10:14:35.663Z,1.90
2018-12-08T10:17:04.114Z,2.50
2018-12-08T10:19:33.614Z,1.80
2018-12-08T10:22:01.935Z,2.00
2018-12-08T10:24:30.248Z,2.03
2018-12-08T10:26:58.606Z,2.30
2018-12-08T10:29:26.902Z,2.10
2018-12-08T10:31:55.333Z,2.37
2018-12-08T10:34:23.773Z,2.40
2018-12-08T10:36:52.108Z,2.00
2018-12-08T10:39:20.565Z,2.10
2018-12-08T10:41:48.891Z,2.30
2018-12-08T10:44:17.156Z,2.42
2018-12-08T10:46:45.479Z,2.25
2018-12-08T10:49:13.741Z,2.33
2018-12-08T10:51:43.486Z,2.27
2018-12-08T10:54:11.801Z,2.10
2018-12-08T10:56:40.168Z,1.90
2018-12-08T10:59:08.441Z,2.27
2018-12-08T11:01:42.391Z,1.87
2018-12-08T11:04:10.674Z,2.40
2018-12-08T11:06:39.123Z,2.27
2018-12-08T11:09:07.749Z,2.58
2018-12-08T11:11:36.006Z,2.13
2018-12-08T11:14:05.439Z,2.12
2018-12-08T11:16:33.697Z,1.90
2018-12-08T11:19:02.084Z,2.00
2018-12-08T11:21:30.383Z,2.47
2018-12-08T11:23:59.497Z,1.98
2018-12-08T11:26:27.706Z,2.17
2018-12-08T11:28:56.273Z,2.23
2018-12-08T11:31:24.868Z,2.08
2018-12-08T11:33:53.134Z,2.05
2018-12-08T11:36:21.426Z,2.22
2018-12-08T11:38:49.652Z,2.20
2018-12-08T11:41:17.962Z,1.92
2018-12-08T11:43:46.248Z,2.20
2018-12-08T11:46:14.641Z,2.15
2018-12-08T11:48:43.087Z,1.90
2018-12-08T11:51:11.454Z,1.80
2018-12-08T11:53:39.718Z,1.75
2018-12-08T11:56:07.926Z,1.77
2018-12-08T11:58:36.242Z,1.90
2018-12-08T12:01:04.625Z,2.30
2018-12-08T12:03:32.839Z,2.17
2018-12-08T12:06:01.265Z,1.82
2018-12-08T12:08:29.627Z,2.00
2018-12-08T12:10:57.963Z,2.00
2018-12-08T12:13:26.407Z,1.80
2018-12-08T12:15:54.682Z,2.08
2018-12-08T12:18:22.972Z,2.20
2018-12-08T12:24:21.179Z,1.80
2018-12-08T12:26:49.469Z,1.98
2018-12-08T12:29:17.705Z,1.70
2018-12-08T12:31:46.029Z,1.65
2018-12-08T12:34:14.360Z,2.20
2018-12-08T12:36:42.705Z,1.87
2018-12-08T12:39:11.076Z,1.92
2018-12-08T12:41:39.336Z,1.90
2018-12-08T12:44:07.718Z,2.17
2018-12-08T12:46:36.004Z,1.80
2018-12-08T12:49:05.111Z,1.82
2018-12-08T12:51:33.327Z,1.62
2018-12-08T12:54:01.800Z,1.80
2018-12-08T12:56:30.180Z,2.00
2018-12-08T12:58:59.195Z,1.80
2018-12-08T13:01:28.287Z,2.00
2018-12-08T13:03:57.221Z,1.90
2018-12-08T13:06:26.834Z,1.90
2018-12-08T13:08:55.631Z,2.10
2018-12-08T13:11:24.000Z,2.02
2018-12-08T13:13:52.536Z,1.90
2018-12-08T13:16:20.807Z,1.60
2018-12-08T13:18:49.152Z,1.65
2018-12-08T13:21:17.462Z,1.90
2018-12-08T13:23:46.856Z,1.80
2018-12-08T13:26:15.232Z,1.60
2018-12-08T13:28:43.527Z,1.67
2018-12-08T13:31:13.278Z,1.70
2018-12-08T13:33:41.677Z,1.65
2018-12-08T13:36:11.406Z,1.63
2018-12-08T13:38:39.750Z,1.80
2018-12-08T13:41:08.045Z,1.80
2018-12-08T13:43:36.347Z,1.98
2018-12-08T13:46:05.535Z,1.70
2018-12-08T13:48:34.320Z,1.50
2018-12-08T13:51:02.798Z,1.95
2018-12-08T13:53:36.710Z,1.80
2018-12-08T13:56:01.633Z,1.90
2018-12-08T13:58:30.008Z,2.00
2018-12-08T14:00:58.299Z,1.95
2018-12-08T14:03:26.784Z,2.00
2018-12-08T14:05:56.135Z,1.90
2018-12-08T14:08:24.464Z,2.00
2018-12-08T14:10:52.775Z,1.90
2018-12-08T14:13:21.084Z,2.10
2018-12-08T14:15:49.410Z,1.80
2018-12-08T14:18:17.682Z,1.70
2018-12-08T14:20:46.166Z,1.75
2018-12-08T14:23:14.491Z,1.80
2018-12-08T14:25:43.068Z,1.80
2018-12-08T14:28:11.799Z,2.00
2018-12-08T14:30:40.080Z,1.72
2018-12-08T14:33:08.388Z,1.80
2018-12-08T14:35:37.414Z,1.77
2018-12-08T14:38:06.013Z,2.00
2018-12-08T14:40:34.316Z,1.67
2018-12-08T14:43:02.516Z,1.90
2018-12-08T14:45:30.958Z,1.73
2018-12-08T14:47:59.342Z,1.90
2018-12-08T14:50:27.804Z,1.90
2018-12-08T14:52:56.339Z,2.10
2018-12-08T14:55:24.769Z,2.07
2018-12-08T14:57:53.114Z,2.10
2018-12-08T15:00:21.485Z,2.27
2018-12-08T15:02:50.349Z,2.30
2018-12-08T15:05:18.755Z,2.10
2018-12-08T15:07:47.453Z,2.00
2018-12-08T15:10:15.909Z,2.10
2018-12-08T15:12:44.262Z,2.40
2018-12-08T15:15:12.618Z,2.30
2018-12-08T15:17:40.958Z,1.87
2018-12-08T15:20:09.747Z,2.20
2018-12-08T15:22:38.390Z,1.90
2018-12-08T15:25:08.847Z,1.80
2018-12-08T15:27:37.383Z,2.20
2018-12-08T15:30:07.295Z,1.95
2018-12-08T15:32:35.575Z,1.90
2018-12-08T15:35:04.027Z,2.20
2018-12-08T15:37:32.428Z,1.95
2018-12-08T15:40:00.747Z,2.42
2018-12-08T15:42:29.081Z,2.10
2018-12-08T15:44:57.312Z,2.02
2018-12-08T15:47:25.782Z,2.08
2018-12-08T15:49:54.299Z,2.13
2018-12-08T15:52:22.863Z,1.75
2018-12-08T15:54:51.207Z,2.20
2018-12-08T15:57:19.642Z,1.98
2018-12-08T15:59:48.257Z,2.47
2018-12-08T16:02:16.574Z,2.30
2018-12-08T16:04:44.908Z,2.33
2018-12-08T16:07:13.353Z,2.10
2018-12-08T16:09:42.913Z,2.35
2018-12-08T16:12:11.145Z,2.52
2018-12-08T16:14:39.444Z,2.60
2018-12-08T16:17:07.905Z,2.17
2018-12-08T16:19:36.218Z,1.80
2018-12-08T16:22:04.603Z,2.20
2018-12-08T16:24:33.012Z,2.05
2018-12-08T16:27:01.242Z,2.08
2018-12-08T16:29:29.611Z,2.00
2018-12-08T16:31:58.023Z,2.05
2018-12-08T16:34:26.408Z,2.40
2018-12-08T16:36:54.808Z,2.10
2018-12-08T16:39:23.155Z,2.08
2018-12-08T16:41:51.410Z,2.00
2018-12-08T16:44:19.704Z,2.08
2018-12-08T16:46:48.076Z,2.33
2018-12-08T16:49:16.386Z,2.50
2018-12-08T16:51:44.719Z,1.87
2018-12-08T16:54:13.100Z,2.60
2018-12-08T16:56:41.683Z,2.12
2018-12-08T16:59:10.064Z,2.40
2018-12-08T17:01:38.365Z,2.40
2018-12-08T17:04:06.847Z,2.62
2018-12-08T17:06:35.345Z,2.20
2018-12-08T17:09:04.860Z,2.65
2018-12-08T17:11:33.225Z,2.30
2018-12-08T17:14:03.187Z,2.12
2018-12-08T17:16:31.561Z,2.00
2018-12-08T17:19:00.008Z,2.30
2018-12-08T17:21:28.673Z,1.90
2018-12-08T17:23:56.972Z,2.27
2018-12-08T17:26:25.290Z,2.20
2018-12-08T17:28:53.640Z,2.30
2018-12-08T17:31:21.939Z,2.40
2018-12-08T17:33:51.604Z,2.20
2018-12-08T17:36:19.948Z,2.30
2018-12-08T17:38:48.425Z,2.50
2018-12-08T17:41:16.709Z,1.90
2018-12-08T17:43:45.294Z,2.20
2018-12-08T17:46:13.606Z,2.00
2018-12-08T17:48:42.150Z,2.10
2018-12-08T17:51:10.506Z,2.40
2018-12-08T17:53:38.762Z,2.12
2018-12-08T17:56:08.313Z,2.10
2018-12-08T17:58:36.808Z,2.10
2018-12-08T18:01:05.252Z,2.33
2018-12-08T18:03:33.541Z,2.65
2018-12-08T18:06:01.904Z,2.20
2018-12-08T18:08:31.254Z,2.25
2018-12-08T18:10:59.824Z,2.42
2018-12-08T18:13:28.259Z,2.20
2018-12-08T18:15:56.723Z,2.45
2018-12-08T18:18:25.140Z,2.35
2018-12-08T18:20:53.661Z,2.55
2018-12-08T18:23:22.229Z,2.80
2018-12-08T18:25:50.820Z,2.50
2018-12-08T18:28:19.340Z,2.50
2018-12-08T18:30:48.520Z,2.40
2018-12-08T18:33:17.212Z,2.58
2018-12-08T18:35:45.703Z,2.43
2018-12-08T18:38:14.631Z,2.83
2018-12-08T18:40:43.185Z,2.60
2018-12-08T18:43:12.554Z,2.50
2018-12-08T18:45:41.082Z,2.50
2018-12-08T18:48:09.421Z,2.50
2018-12-08T18:50:44.379Z,2.72
2018-12-08T18:53:12.778Z,2.10
2018-12-08T18:55:41.302Z,2.50
2018-12-08T18:58:10.904Z,2.30
2018-12-08T19:00:39.511Z,2.40
2018-12-08T19:03:08.018Z,2.60
2018-12-08T19:05:36.448Z,2.40
2018-12-08T19:08:05.084Z,2.20
2018-12-08T19:10:33.357Z,2.45
2018-12-08T19:13:02.625Z,2.40
2018-12-08T19:15:31.125Z,2.55
2018-12-08T19:18:00.206Z,2.90
2018-12-08T19:20:29.845Z,2.62
2018-12-08T19:22:58.081Z,2.25
2018-12-08T19:25:26.533Z,3.00
2018-12-08T19:27:54.794Z,3.12
2018-12-08T19:30:23.100Z,2.33
2018-12-08T19:32:51.456Z,2.45
2018-12-08T19:35:19.727Z,2.70
2018-12-08T19:37:48.011Z,2.85
2018-12-08T19:40:16.428Z,2.40
2018-12-08T19:42:44.907Z,2.67
2018-12-08T19:45:13.422Z,2.30
2018-12-08T19:47:42.797Z,2.70
2018-12-08T19:50:11.175Z,2.58
2018-12-08T19:52:42.263Z,2.60
2018-12-08T19:55:10.589Z,2.30
2018-12-08T19:57:38.857Z,2.20
2018-12-08T20:00:09.157Z,2.40
2018-12-08T20:02:37.514Z,2.75
2018-12-08T20:05:05.989Z,2.60
2018-12-08T20:07:34.215Z,2.40
2018-12-08T20:10:02.527Z,2.45
2018-12-08T20:12:30.829Z,2.95
2018-12-08T20:14:59.228Z,2.33
2018-12-08T20:17:27.478Z,2.40
2018-12-08T20:19:55.737Z,2.50
2018-12-08T20:22:24.050Z,2.37
2018-12-08T20:25:00.316Z,2.35
2018-12-08T20:27:28.671Z,2.17
2018-12-08T20:29:56.954Z,2.37
2018-12-08T20:32:25.909Z,2.45
2018-12-08T20:34:54.141Z,2.72
2018-12-08T20:37:22.460Z,2.60
2018-12-08T20:39:50.849Z,2.50
2018-12-08T20:42:19.482Z,2.50
2018-12-08T20:44:47.903Z,2.57
2018-12-08T20:47:17.058Z,2.47
2018-12-08T20:49:45.473Z,2.77
2018-12-08T20:52:13.771Z,2.57
2018-12-08T20:54:42.167Z,2.35
2018-12-08T20:57:10.560Z,2.80
2018-12-08T20:59:38.925Z,2.35
2018-12-08T21:02:07.429Z,2.42
2018-12-08T21:04:35.684Z,2.63
2018-12-08T21:07:04.038Z,3.17
2018-12-08T21:09:33.044Z,2.70
2018-12-08T21:12:01.284Z,2.85
2018-12-08T21:14:29.911Z,2.70
2018-12-08T21:16:58.160Z,2.95
2018-12-08T21:19:26.364Z,2.80
2018-12-08T21:21:54.751Z,2.80
2018-12-08T21:24:23.104Z,2.47
2018-12-08T21:26:51.381Z,2.80
2018-12-08T21:29:19.808Z,2.50
2018-12-08T21:31:48.113Z,2.47
2018-12-08T21:34:16.473Z,2.72
2018-12-08T21:36:45.716Z,2.52
2018-12-08T21:39:14.136Z,2.60
2018-12-08T21:41:42.484Z,2.35
2018-12-08T21:44:10.820Z,2.45
2018-12-08T21:46:39.086Z,2.45
2018-12-08T21:49:08.244Z,2.40
2018-12-08T21:51:36.537Z,2.30
2018-12-08T21:54:04.866Z,2.58
2018-12-08T21:56:33.412Z,2.77
2018-12-08T21:59:02.144Z,2.77
2018-12-08T22:01:30.874Z,2.72
2018-12-08T22:03:59.252Z,2.35
2018-12-08T22:06:27.593Z,2.83
2018-12-08T22:08:56.004Z,3.00
2018-12-08T22:11:24.512Z,2.50
2018-12-08T22:13:52.885Z,2.77
2018-12-08T22:16:21.141Z,2.60
2018-12-08T22:18:49.354Z,2.65
2018-12-08T22:21:17.742Z,2.65
2018-12-08T22:23:46.027Z,2.23
2018-12-08T22:26:14.262Z,2.60
2018-12-08T22:28:42.721Z,2.55
2018-12-08T22:31:11.001Z,2.70
2018-12-08T22:33:40.620Z,2.60
2018-12-08T22:36:08.925Z,2.65
2018-12-08T22:38:37.292Z,2.72
2018-12-08T22:41:05.613Z,3.13
2018-12-08T22:43:33.971Z,2.60
2018-12-08T22:46:02.455Z,2.52
2018-12-08T22:48:30.774Z,2.33
2018-12-08T22:50:59.103Z,2.50
2018-12-08T22:53:27.282Z,2.72
2018-12-08T22:55:55.717Z,2.80
2018-12-08T22:58:24.007Z,2.73
2018-12-08T23:00:53.014Z,2.92
2018-12-08T23:03:21.405Z,2.90
2018-12-08T23:05:49.751Z,2.70
2018-12-08T23:08:18.089Z,2.80
2018-12-08T23:10:46.393Z,2.50
2018-12-08T23:13:14.706Z,2.70
2018-12-08T23:15:43.094Z,2.60
2018-12-08T23:18:11.519Z,2.40
2018-12-08T23:20:39.720Z,2.75
2018-12-08T23:23:08.105Z,2.60
2018-12-08T23:25:36.520Z,2.60
2018-12-08T23:28:04.882Z,2.85
2018-12-08T23:30:33.339Z,2.60
2018-12-08T23:33:01.614Z,3.00
2018-12-08T23:35:30.016Z,2.90
2018-12-08T23:37:58.377Z,2.65
2018-12-08T23:40:26.894Z,2.75
2018-12-08T23:42:55.855Z,2.40
2018-12-08T23:45:24.427Z,2.50
2018-12-08T23:47:54.058Z,2.62
2018-12-08T23:50:23.196Z,2.65
2018-12-08T23:52:51.550Z,2.83
2018-12-08T23:55:19.855Z,2.62
2018-12-08T23:57:48.441Z,2.90
